sensor_id;sensor_type;location;lat;lon;timestamp;P1;durP1;ratioP1;P2;durP2;ratioP2
71836;SDS011;59686;51.716;7.016;2022-09-09T00:07:41;1.27;;;1.00;;
71836;SDS011;59686;51.716;7.016;2022-09-09T00:15:20;1.90;;;0.98;;
71836;SDS011;59686;51.716;7.016;2022-09-09T00:18:05;1.05;;;0.95;;
71836;SDS011;59686;51.716;7.016;2022-09-09T00:20:54;1.58;;;1.00;;
71836;SDS011;59686;51.716;7.016;2022-09-09T00:23:43;1.50;;;1.00;;
71836;SDS011;59686;51.716;7.016;2022-09-09T00:27:01;1.38;;;0.90;;
71836;SDS011;59686;51.716;7.016;2022-09-09T00:29:14;2.40;;;0.93;;
71836;SDS011;59686;51.716;7.016;2022-09-09T00:32:09;1.65;;;1.10;;
71836;SDS011;59686;51.716;7.016;2022-09-09T00:34:55;1.67;;;1.15;;
71836;SDS011;59686;51.716;7.016;2022-09-09T00:37:28;1.13;;;0.95;;
71836;SDS011;59686;51.716;7.016;2022-09-09T00:39:57;1.77;;;1.20;;
71836;SDS011;59686;51.716;7.016;2022-09-09T00:47:55;1.05;;;0.80;;
71836;SDS011;59686;51.716;7.016;2022-09-09T00:53:20;1.27;;;1.00;;
71836;SDS011;59686;51.716;7.016;2022-09-09T00:58:40;1.23;;;0.98;;
71836;SDS011;59686;51.716;7.016;2022-09-09T01:01:16;1.27;;;0.90;;
71836;SDS011;59686;51.716;7.016;2022-09-09T01:03:47;2.80;;;1.00;;
71836;SDS011;59686;51.716;7.016;2022-09-09T01:06:31;1.10;;;1.00;;
71836;SDS011;59686;51.716;7.016;2022-09-09T01:09:07;2.25;;;1.13;;
71836;SDS011;59686;51.716;7.016;2022-09-09T01:14:30;1.10;;;1.00;;
71836;SDS011;59686;51.716;7.016;2022-09-09T01:19:50;1.98;;;1.30;;
71836;SDS011;59686;51.716;7.016;2022-09-09T01:25:11;1.58;;;1.02;;
71836;SDS011;59686;51.716;7.016;2022-09-09T01:27:58;1.42;;;1.02;;
71836;SDS011;59686;51.716;7.016;2022-09-09T01:30:27;1.20;;;0.90;;
71836;SDS011;59686;51.716;7.016;2022-09-09T01:38:17;1.98;;;0.98;;
71836;SDS011;59686;51.716;7.016;2022-09-09T01:40:43;1.35;;;0.85;;
71836;SDS011;59686;51.716;7.016;2022-09-09T01:43:09;1.25;;;1.02;;
71836;SDS011;59686;51.716;7.016;2022-09-09T01:45:35;1.70;;;0.95;;
71836;SDS011;59686;51.716;7.016;2022-09-09T01:48:01;1.48;;;1.10;;
71836;SDS011;59686;51.716;7.016;2022-09-09T01:50:27;1.55;;;1.00;;
71836;SDS011;59686;51.716;7.016;2022-09-09T01:52:55;2.17;;;1.10;;
71836;SDS011;59686;51.716;7.016;2022-09-09T01:55:38;1.00;;;0.90;;
71836;SDS011;59686;51.716;7.016;2022-09-09T01:58:11;1.45;;;1.00;;
71836;SDS011;59686;51.716;7.016;2022-09-09T02:03:34;1.83;;;1.20;;
71836;SDS011;59686;51.716;7.016;2022-09-09T02:09:05;2.75;;;1.20;;
71836;SDS011;59686;51.716;7.016;2022-09-09T02:11:33;2.08;;;1.30;;
71836;SDS011;59686;51.716;7.016;2022-09-09T02:14:00;2.75;;;1.13;;
71836;SDS011;59686;51.716;7.016;2022-09-09T02:16:43;2.50;;;1.00;;
71836;SDS011;59686;51.716;7.016;2022-09-09T02:19:14;1.88;;;1.00;;
71836;SDS011;59686;51.716;7.016;2022-09-09T02:21:50;1.58;;;1.05;;
71836;SDS011;59686;51.716;7.016;2022-09-09T02:24:19;3.17;;;1.02;;
71836;SDS011;59686;51.716;7.016;2022-09-09T02:26:45;1.10;;;1.00;;
71836;SDS011;59686;51.716;7.016;2022-09-09T02:29:24;1.40;;;1.10;;
71836;SDS011;59686;51.716;7.016;2022-09-09T02:31:58;2.47;;;1.30;;
71836;SDS011;59686;51.716;7.016;2022-09-09T02:34:28;2.50;;;1.05;;
71836;SDS011;59686;51.716;7.016;2022-09-09T02:36:57;1.77;;;1.20;;
71836;SDS011;59686;51.716;7.016;2022-09-09T02:39:24;1.30;;;0.90;;
71836;SDS011;59686;51.716;7.016;2022-09-09T02:41:50;1.80;;;1.13;;
71836;SDS011;59686;51.716;7.016;2022-09-09T02:44:17;1.30;;;1.10;;
71836;SDS011;59686;51.716;7.016;2022-09-09T02:46:47;0.90;;;0.80;;
71836;SDS011;59686;51.716;7.016;2022-09-09T02:49:40;2.42;;;1.10;;
71836;SDS011;59686;51.716;7.016;2022-09-09T02:55:11;1.10;;;1.00;;
71836;SDS011;59686;51.716;7.016;2022-09-09T02:57:44;1.83;;;1.00;;
71836;SDS011;59686;51.716;7.016;2022-09-09T03:00:12;1.48;;;0.88;;
71836;SDS011;59686;51.716;7.016;2022-09-09T03:05:07;2.08;;;1.00;;
71836;SDS011;59686;51.716;7.016;2022-09-09T03:07:33;1.70;;;1.00;;
71836;SDS011;59686;51.716;7.016;2022-09-09T03:09:58;1.75;;;1.17;;
71836;SDS011;59686;51.716;7.016;2022-09-09T03:12:24;2.08;;;1.38;;
71836;SDS011;59686;51.716;7.016;2022-09-09T03:14:50;2.53;;;1.20;;
71836;SDS011;59686;51.716;7.016;2022-09-09T03:17:15;2.17;;;1.20;;
71836;SDS011;59686;51.716;7.016;2022-09-09T03:19:41;1.75;;;1.17;;
71836;SDS011;59686;51.716;7.016;2022-09-09T03:24:43;2.17;;;1.15;;
71836;SDS011;59686;51.716;7.016;2022-09-09T03:27:08;1.52;;;1.10;;
71836;SDS011;59686;51.716;7.016;2022-09-09T03:29:34;1.13;;;1.00;;
71836;SDS011;59686;51.716;7.016;2022-09-09T03:32:00;1.88;;;1.30;;
71836;SDS011;59686;51.716;7.016;2022-09-09T03:34:25;1.85;;;1.20;;
71836;SDS011;59686;51.716;7.016;2022-09-09T03:36:51;2.30;;;1.33;;
71836;SDS011;59686;51.716;7.016;2022-09-09T03:39:17;2.58;;;1.20;;
71836;SDS011;59686;51.716;7.016;2022-09-09T03:41:42;2.42;;;1.20;;
71836;SDS011;59686;51.716;7.016;2022-09-09T03:44:10;3.70;;;1.15;;
71836;SDS011;59686;51.716;7.016;2022-09-09T03:46:35;2.58;;;1.10;;
71836;SDS011;59686;51.716;7.016;2022-09-09T03:49:02;2.00;;;1.15;;
71836;SDS011;59686;51.716;7.016;2022-09-09T03:51:28;2.08;;;1.25;;
71836;SDS011;59686;51.716;7.016;2022-09-09T03:53:54;1.60;;;0.90;;
71836;SDS011;59686;51.716;7.016;2022-09-09T03:56:23;2.47;;;1.02;;
71836;SDS011;59686;51.716;7.016;2022-09-09T03:58:49;3.00;;;1.20;;
71836;SDS011;59686;51.716;7.016;2022-09-09T04:01:15;1.58;;;1.15;;
71836;SDS011;59686;51.716;7.016;2022-09-09T04:03:43;1.85;;;1.20;;
71836;SDS011;59686;51.716;7.016;2022-09-09T04:06:10;2.17;;;1.20;;
71836;SDS011;59686;51.716;7.016;2022-09-09T04:08:38;1.35;;;1.00;;
71836;SDS011;59686;51.716;7.016;2022-09-09T04:11:05;3.70;;;1.35;;
71836;SDS011;59686;51.716;7.016;2022-09-09T04:13:32;2.10;;;1.25;;
71836;SDS011;59686;51.716;7.016;2022-09-09T04:15:59;1.65;;;1.10;;
71836;SDS011;59686;51.716;7.016;2022-09-09T04:18:26;2.67;;;1.33;;
71836;SDS011;59686;51.716;7.016;2022-09-09T04:20:57;1.63;;;1.08;;
71836;SDS011;59686;51.716;7.016;2022-09-09T04:23:24;2.53;;;1.20;;
71836;SDS011;59686;51.716;7.016;2022-09-09T04:25:54;2.63;;;1.10;;
71836;SDS011;59686;51.716;7.016;2022-09-09T04:28:22;1.75;;;1.20;;
71836;SDS011;59686;51.716;7.016;2022-09-09T04:30:49;1.73;;;1.20;;
71836;SDS011;59686;51.716;7.016;2022-09-09T04:33:15;2.78;;;1.40;;
71836;SDS011;59686;51.716;7.016;2022-09-09T04:35:46;2.05;;;1.30;;
71836;SDS011;59686;51.716;7.016;2022-09-09T04:38:13;1.55;;;1.20;;
71836;SDS011;59686;51.716;7.016;2022-09-09T04:40:42;2.08;;;1.20;;
71836;SDS011;59686;51.716;7.016;2022-09-09T04:43:08;2.08;;;1.30;;
71836;SDS011;59686;51.716;7.016;2022-09-09T04:45:34;2.22;;;1.13;;
71836;SDS011;59686;51.716;7.016;2022-09-09T04:48:00;1.92;;;1.30;;
71836;SDS011;59686;51.716;7.016;2022-09-09T04:50:27;3.30;;;1.40;;
71836;SDS011;59686;51.716;7.016;2022-09-09T04:52:53;2.00;;;1.20;;
71836;SDS011;59686;51.716;7.016;2022-09-09T04:55:19;1.73;;;1.05;;
71836;SDS011;59686;51.716;7.016;2022-09-09T04:57:45;2.40;;;1.30;;
71836;SDS011;59686;51.716;7.016;2022-09-09T05:00:11;2.03;;;1.40;;
71836;SDS011;59686;51.716;7.016;2022-09-09T05:02:38;2.40;;;1.50;;
71836;SDS011;59686;51.716;7.016;2022-09-09T05:05:04;1.65;;;1.20;;
71836;SDS011;59686;51.716;7.016;2022-09-09T05:07:30;2.00;;;1.20;;
71836;SDS011;59686;51.716;7.016;2022-09-09T05:09:56;2.03;;;1.30;;
71836;SDS011;59686;51.716;7.016;2022-09-09T05:12:22;2.25;;;1.15;;
71836;SDS011;59686;51.716;7.016;2022-09-09T05:14:51;3.13;;;1.30;;
71836;SDS011;59686;51.716;7.016;2022-09-09T05:17:17;2.42;;;1.23;;
71836;SDS011;59686;51.716;7.016;2022-09-09T05:19:43;2.63;;;1.27;;
71836;SDS011;59686;51.716;7.016;2022-09-09T05:22:09;3.08;;;1.38;;
71836;SDS011;59686;51.716;7.016;2022-09-09T05:24:37;1.90;;;1.33;;
71836;SDS011;59686;51.716;7.016;2022-09-09T05:27:03;1.10;;;1.00;;
71836;SDS011;59686;51.716;7.016;2022-09-09T05:29:31;1.42;;;1.20;;
71836;SDS011;59686;51.716;7.016;2022-09-09T05:31:58;3.45;;;1.10;;
71836;SDS011;59686;51.716;7.016;2022-09-09T05:34:24;1.83;;;1.35;;
71836;SDS011;59686;51.716;7.016;2022-09-09T05:36:50;2.35;;;1.30;;
71836;SDS011;59686;51.716;7.016;2022-09-09T05:39:17;1.80;;;1.20;;
71836;SDS011;59686;51.716;7.016;2022-09-09T05:41:43;2.05;;;1.10;;
71836;SDS011;59686;51.716;7.016;2022-09-09T05:44:09;4.60;;;1.25;;
71836;SDS011;59686;51.716;7.016;2022-09-09T05:46:34;4.57;;;1.48;;
71836;SDS011;59686;51.716;7.016;2022-09-09T05:49:01;2.88;;;1.27;;
71836;SDS011;59686;51.716;7.016;2022-09-09T05:51:28;2.10;;;1.30;;
71836;SDS011;59686;51.716;7.016;2022-09-09T05:54:10;1.45;;;1.20;;
71836;SDS011;59686;51.716;7.016;2022-09-09T05:56:39;2.47;;;1.20;;
71836;SDS011;59686;51.716;7.016;2022-09-09T05:59:05;1.90;;;1.27;;
71836;SDS011;59686;51.716;7.016;2022-09-09T06:01:33;1.80;;;1.25;;
71836;SDS011;59686;51.716;7.016;2022-09-09T06:04:00;2.80;;;1.40;;
71836;SDS011;59686;51.716;7.016;2022-09-09T06:06:26;2.47;;;1.20;;
71836;SDS011;59686;51.716;7.016;2022-09-09T06:09:15;3.28;;;1.77;;
71836;SDS011;59686;51.716;7.016;2022-09-09T06:11:41;3.67;;;1.20;;
71836;SDS011;59686;51.716;7.016;2022-09-09T06:14:08;1.98;;;1.35;;
71836;SDS011;59686;51.716;7.016;2022-09-09T06:16:33;1.80;;;1.10;;
71836;SDS011;59686;51.716;7.016;2022-09-09T06:19:00;1.77;;;1.20;;
71836;SDS011;59686;51.716;7.016;2022-09-09T06:21:35;2.42;;;1.23;;
71836;SDS011;59686;51.716;7.016;2022-09-09T06:24:02;2.47;;;1.27;;
71836;SDS011;59686;51.716;7.016;2022-09-09T06:26:32;3.97;;;1.45;;
71836;SDS011;59686;51.716;7.016;2022-09-09T06:28:59;2.70;;;1.38;;
71836;SDS011;59686;51.716;7.016;2022-09-09T06:31:28;2.67;;;1.20;;
71836;SDS011;59686;51.716;7.016;2022-09-09T06:33:59;4.00;;;1.40;;
71836;SDS011;59686;51.716;7.016;2022-09-09T06:36:29;4.78;;;1.40;;
71836;SDS011;59686;51.716;7.016;2022-09-09T06:39:05;3.70;;;1.63;;
71836;SDS011;59686;51.716;7.016;2022-09-09T06:41:32;2.50;;;1.10;;
71836;SDS011;59686;51.716;7.016;2022-09-09T06:43:58;3.25;;;1.60;;
71836;SDS011;59686;51.716;7.016;2022-09-09T06:46:25;2.15;;;1.30;;
71836;SDS011;59686;51.716;7.016;2022-09-09T06:48:56;3.50;;;1.60;;
71836;SDS011;59686;51.716;7.016;2022-09-09T06:51:23;4.03;;;1.30;;
71836;SDS011;59686;51.716;7.016;2022-09-09T06:53:50;5.10;;;1.48;;
71836;SDS011;59686;51.716;7.016;2022-09-09T06:56:21;2.65;;;1.38;;
71836;SDS011;59686;51.716;7.016;2022-09-09T06:58:49;3.17;;;1.60;;
71836;SDS011;59686;51.716;7.016;2022-09-09T07:01:17;3.58;;;1.60;;
71836;SDS011;59686;51.716;7.016;2022-09-09T07:03:45;3.33;;;1.30;;
71836;SDS011;59686;51.716;7.016;2022-09-09T07:06:16;3.72;;;1.50;;
71836;SDS011;59686;51.716;7.016;2022-09-09T07:08:47;3.33;;;1.58;;
71836;SDS011;59686;51.716;7.016;2022-09-09T07:11:15;3.80;;;1.48;;
71836;SDS011;59686;51.716;7.016;2022-09-09T07:13:41;2.70;;;1.50;;
71836;SDS011;59686;51.716;7.016;2022-09-09T07:16:13;3.22;;;1.70;;
71836;SDS011;59686;51.716;7.016;2022-09-09T07:18:40;5.22;;;1.75;;
71836;SDS011;59686;51.716;7.016;2022-09-09T07:21:06;2.35;;;1.35;;
71836;SDS011;59686;51.716;7.016;2022-09-09T07:23:33;3.38;;;1.60;;
71836;SDS011;59686;51.716;7.016;2022-09-09T07:26:01;3.33;;;1.50;;
71836;SDS011;59686;51.716;7.016;2022-09-09T07:28:27;1.88;;;1.48;;
71836;SDS011;59686;51.716;7.016;2022-09-09T07:31:01;2.83;;;1.48;;
71836;SDS011;59686;51.716;7.016;2022-09-09T07:33:28;4.18;;;1.25;;
71836;SDS011;59686;51.716;7.016;2022-09-09T07:36:15;2.50;;;1.48;;
71836;SDS011;59686;51.716;7.016;2022-09-09T07:38:47;3.95;;;1.50;;
71836;SDS011;59686;51.716;7.016;2022-09-09T07:41:19;5.70;;;1.75;;
71836;SDS011;59686;51.716;7.016;2022-09-09T07:43:47;4.97;;;1.60;;
71836;SDS011;59686;51.716;7.016;2022-09-09T07:46:14;4.40;;;1.98;;
71836;SDS011;59686;51.716;7.016;2022-09-09T07:51:35;2.90;;;1.63;;
71836;SDS011;59686;51.716;7.016;2022-09-09T07:54:10;4.18;;;1.60;;
71836;SDS011;59686;51.716;7.016;2022-09-09T07:56:38;3.53;;;1.83;;
71836;SDS011;59686;51.716;7.016;2022-09-09T07:59:05;4.63;;;1.90;;
71836;SDS011;59686;51.716;7.016;2022-09-09T08:01:49;5.68;;;1.75;;
71836;SDS011;59686;51.716;7.016;2022-09-09T08:04:18;4.13;;;1.70;;
71836;SDS011;59686;51.716;7.016;2022-09-09T08:09:15;3.80;;;1.75;;
71836;SDS011;59686;51.716;7.016;2022-09-09T08:11:42;4.40;;;1.77;;
71836;SDS011;59686;51.716;7.016;2022-09-09T08:16:38;2.85;;;1.60;;
71836;SDS011;59686;51.716;7.016;2022-09-09T08:19:09;4.60;;;1.80;;
71836;SDS011;59686;51.716;7.016;2022-09-09T08:21:36;5.53;;;1.80;;
71836;SDS011;59686;51.716;7.016;2022-09-09T08:24:06;6.03;;;1.90;;
71836;SDS011;59686;51.716;7.016;2022-09-09T08:29:28;4.38;;;1.70;;
71836;SDS011;59686;51.716;7.016;2022-09-09T08:31:54;5.22;;;1.70;;
71836;SDS011;59686;51.716;7.016;2022-09-09T08:34:22;5.93;;;1.92;;
71836;SDS011;59686;51.716;7.016;2022-09-09T08:36:50;2.58;;;1.42;;
71836;SDS011;59686;51.716;7.016;2022-09-09T08:39:17;4.63;;;1.70;;
71836;SDS011;59686;51.716;7.016;2022-09-09T08:47:06;6.32;;;1.70;;
71836;SDS011;59686;51.716;7.016;2022-09-09T08:58:21;5.13;;;2.13;;
71836;SDS011;59686;51.716;7.016;2022-09-09T09:11:34;5.00;;;1.70;;
71836;SDS011;59686;51.716;7.016;2022-09-09T09:14:03;6.32;;;1.60;;
71836;SDS011;59686;51.716;7.016;2022-09-09T09:19:23;3.95;;;1.52;;
71836;SDS011;59686;51.716;7.016;2022-09-09T09:21:57;3.13;;;1.60;;
71836;SDS011;59686;51.716;7.016;2022-09-09T09:30:21;5.40;;;1.83;;
71836;SDS011;59686;51.716;7.016;2022-09-09T09:32:59;4.00;;;1.60;;
71836;SDS011;59686;51.716;7.016;2022-09-09T09:35:28;3.80;;;1.38;;
71836;SDS011;59686;51.716;7.016;2022-09-09T09:37:57;4.22;;;1.35;;
71836;SDS011;59686;51.716;7.016;2022-09-09T09:40:25;3.88;;;1.70;;
71836;SDS011;59686;51.716;7.016;2022-09-09T09:42:55;4.47;;;1.58;;
71836;SDS011;59686;51.716;7.016;2022-09-09T09:45:43;5.18;;;1.77;;
71836;SDS011;59686;51.716;7.016;2022-09-09T09:48:13;4.72;;;1.75;;
71836;SDS011;59686;51.716;7.016;2022-09-09T09:53:45;3.50;;;1.80;;
71836;SDS011;59686;51.716;7.016;2022-09-09T09:56:12;2.95;;;1.50;;
71836;SDS011;59686;51.716;7.016;2022-09-09T10:01:25;5.18;;;1.77;;
71836;SDS011;59686;51.716;7.016;2022-09-09T10:03:54;5.07;;;1.70;;
71836;SDS011;59686;51.716;7.016;2022-09-09T10:06:33;4.35;;;1.67;;
71836;SDS011;59686;51.716;7.016;2022-09-09T10:09:03;4.13;;;1.60;;
71836;SDS011;59686;51.716;7.016;2022-09-09T10:14:21;3.85;;;1.48;;
71836;SDS011;59686;51.716;7.016;2022-09-09T10:17:24;3.10;;;1.55;;
71836;SDS011;59686;51.716;7.016;2022-09-09T10:22:36;6.57;;;1.95;;
71836;SDS011;59686;51.716;7.016;2022-09-09T10:27:50;2.35;;;1.20;;
71836;SDS011;59686;51.716;7.016;2022-09-09T10:33:17;5.95;;;1.58;;
71836;SDS011;59686;51.716;7.016;2022-09-09T10:35:59;5.63;;;1.55;;
71836;SDS011;59686;51.716;7.016;2022-09-09T10:38:41;2.97;;;1.55;;
71836;SDS011;59686;51.716;7.016;2022-09-09T10:41:33;4.53;;;1.42;;
71836;SDS011;59686;51.716;7.016;2022-09-09T10:55:16;3.90;;;1.60;;
71836;SDS011;59686;51.716;7.016;2022-09-09T10:57:44;4.25;;;1.75;;
71836;SDS011;59686;51.716;7.016;2022-09-09T11:03:09;3.47;;;1.50;;
71836;SDS011;59686;51.716;7.016;2022-09-09T11:05:45;6.57;;;1.58;;
71836;SDS011;59686;51.716;7.016;2022-09-09T11:08:39;5.75;;;1.33;;
71836;SDS011;59686;51.716;7.016;2022-09-09T11:11:13;5.85;;;1.60;;
71836;SDS011;59686;51.716;7.016;2022-09-09T11:13:49;2.97;;;1.52;;
71836;SDS011;59686;51.716;7.016;2022-09-09T11:21:52;4.68;;;1.20;;
71836;SDS011;59686;51.716;7.016;2022-09-09T11:24:36;4.13;;;1.58;;
71836;SDS011;59686;51.716;7.016;2022-09-09T11:27:14;3.90;;;1.27;;
71836;SDS011;59686;51.716;7.016;2022-09-09T11:41:04;2.85;;;1.33;;
71836;SDS011;59686;51.716;7.016;2022-09-09T11:46:09;3.25;;;1.60;;
71836;SDS011;59686;51.716;7.016;2022-09-09T11:48:44;4.88;;;1.40;;
71836;SDS011;59686;51.716;7.016;2022-09-09T11:56:23;3.72;;;1.23;;
71836;SDS011;59686;51.716;7.016;2022-09-09T11:59:00;2.53;;;1.20;;
71836;SDS011;59686;51.716;7.016;2022-09-09T12:01:44;2.85;;;1.35;;
71836;SDS011;59686;51.716;7.016;2022-09-09T12:06:50;5.35;;;1.27;;
71836;SDS011;59686;51.716;7.016;2022-09-09T12:09:47;1.75;;;1.20;;
71836;SDS011;59686;51.716;7.016;2022-09-09T12:12:26;2.65;;;1.17;;
71836;SDS011;59686;51.716;7.016;2022-09-09T12:17:49;3.83;;;1.42;;
71836;SDS011;59686;51.716;7.016;2022-09-09T12:20:21;2.88;;;1.30;;
71836;SDS011;59686;51.716;7.016;2022-09-09T12:23:08;5.07;;;2.05;;
71836;SDS011;59686;51.716;7.016;2022-09-09T12:25:48;2.80;;;1.20;;
71836;SDS011;59686;51.716;7.016;2022-09-09T12:28:19;2.50;;;1.25;;
71836;SDS011;59686;51.716;7.016;2022-09-09T12:33:49;2.00;;;1.20;;
71836;SDS011;59686;51.716;7.016;2022-09-09T12:36:24;4.07;;;1.50;;
71836;SDS011;59686;51.716;7.016;2022-09-09T12:38:55;3.17;;;1.20;;
71836;SDS011;59686;51.716;7.016;2022-09-09T12:41:25;3.80;;;1.40;;
71836;SDS011;59686;51.716;7.016;2022-09-09T12:44:03;5.43;;;1.45;;
71836;SDS011;59686;51.716;7.016;2022-09-09T12:46:42;4.53;;;1.45;;
71836;SDS011;59686;51.716;7.016;2022-09-09T12:49:27;3.40;;;1.50;;
71836;SDS011;59686;51.716;7.016;2022-09-09T12:51:59;1.98;;;1.15;;
71836;SDS011;59686;51.716;7.016;2022-09-09T12:54:27;3.05;;;1.20;;
71836;SDS011;59686;51.716;7.016;2022-09-09T12:56:53;7.20;;;1.30;;
71836;SDS011;59686;51.716;7.016;2022-09-09T12:59:23;8.88;;;1.65;;
71836;SDS011;59686;51.716;7.016;2022-09-09T13:01:57;2.78;;;1.40;;
71836;SDS011;59686;51.716;7.016;2022-09-09T13:04:23;2.20;;;1.17;;
71836;SDS011;59686;51.716;7.016;2022-09-09T13:06:49;4.03;;;1.27;;
71836;SDS011;59686;51.716;7.016;2022-09-09T13:09:17;5.93;;;1.45;;
71836;SDS011;59686;51.716;7.016;2022-09-09T13:11:45;4.95;;;1.40;;
71836;SDS011;59686;51.716;7.016;2022-09-09T13:14:28;11.55;;;1.92;;
71836;SDS011;59686;51.716;7.016;2022-09-09T13:17:00;4.63;;;1.50;;
71836;SDS011;59686;51.716;7.016;2022-09-09T13:19:37;4.22;;;1.10;;
71836;SDS011;59686;51.716;7.016;2022-09-09T13:27:55;5.75;;;1.60;;
71836;SDS011;59686;51.716;7.016;2022-09-09T13:33:18;4.32;;;1.60;;
71836;SDS011;59686;51.716;7.016;2022-09-09T13:35:55;3.47;;;1.40;;
71836;SDS011;59686;51.716;7.016;2022-09-09T13:38:23;4.85;;;1.42;;
71836;SDS011;59686;51.716;7.016;2022-09-09T13:40:54;4.35;;;1.63;;
71836;SDS011;59686;51.716;7.016;2022-09-09T13:43:21;4.85;;;1.90;;
71836;SDS011;59686;51.716;7.016;2022-09-09T13:45:55;4.00;;;1.60;;
71836;SDS011;59686;51.716;7.016;2022-09-09T13:48:23;5.53;;;1.63;;
71836;SDS011;59686;51.716;7.016;2022-09-09T13:51:03;5.07;;;1.58;;
71836;SDS011;59686;51.716;7.016;2022-09-09T13:53:32;5.10;;;1.50;;
71836;SDS011;59686;51.716;7.016;2022-09-09T13:55:58;6.43;;;1.52;;
71836;SDS011;59686;51.716;7.016;2022-09-09T13:58:24;4.10;;;1.40;;
71836;SDS011;59686;51.716;7.016;2022-09-09T14:00:51;8.93;;;1.75;;
71836;SDS011;59686;51.716;7.016;2022-09-09T14:03:18;3.90;;;1.60;;
71836;SDS011;59686;51.716;7.016;2022-09-09T14:05:44;3.70;;;1.13;;
71836;SDS011;59686;51.716;7.016;2022-09-09T14:08:15;5.65;;;1.85;;
71836;SDS011;59686;51.716;7.016;2022-09-09T14:10:48;3.83;;;1.30;;
71836;SDS011;59686;51.716;7.016;2022-09-09T14:13:14;3.30;;;1.40;;
71836;SDS011;59686;51.716;7.016;2022-09-09T14:15:40;3.10;;;1.20;;
71836;SDS011;59686;51.716;7.016;2022-09-09T14:18:08;5.53;;;1.30;;
71836;SDS011;59686;51.716;7.016;2022-09-09T14:20:39;2.38;;;1.42;;
71836;SDS011;59686;51.716;7.016;2022-09-09T14:23:05;3.25;;;1.20;;
71836;SDS011;59686;51.716;7.016;2022-09-09T14:25:31;5.07;;;1.60;;
71836;SDS011;59686;51.716;7.016;2022-09-09T14:27:58;6.60;;;1.48;;
71836;SDS011;59686;51.716;7.016;2022-09-09T14:30:24;5.95;;;1.70;;
71836;SDS011;59686;51.716;7.016;2022-09-09T14:32:49;3.92;;;1.75;;
71836;SDS011;59686;51.716;7.016;2022-09-09T14:35:15;3.97;;;1.80;;
71836;SDS011;59686;51.716;7.016;2022-09-09T14:37:42;4.75;;;2.10;;
71836;SDS011;59686;51.716;7.016;2022-09-09T14:40:08;4.82;;;1.73;;
71836;SDS011;59686;51.716;7.016;2022-09-09T14:42:38;4.35;;;1.58;;
71836;SDS011;59686;51.716;7.016;2022-09-09T14:45:04;3.40;;;1.58;;
71836;SDS011;59686;51.716;7.016;2022-09-09T14:47:30;3.03;;;1.50;;
71836;SDS011;59686;51.716;7.016;2022-09-09T14:49:55;7.70;;;1.83;;
71836;SDS011;59686;51.716;7.016;2022-09-09T14:52:21;4.90;;;1.80;;
71836;SDS011;59686;51.716;7.016;2022-09-09T14:54:47;2.92;;;1.67;;
71836;SDS011;59686;51.716;7.016;2022-09-09T14:57:13;5.20;;;1.67;;
71836;SDS011;59686;51.716;7.016;2022-09-09T14:59:38;4.55;;;2.03;;
71836;SDS011;59686;51.716;7.016;2022-09-09T15:02:04;2.47;;;1.50;;
71836;SDS011;59686;51.716;7.016;2022-09-09T15:04:30;3.92;;;1.70;;
71836;SDS011;59686;51.716;7.016;2022-09-09T15:06:56;10.15;;;2.83;;
71836;SDS011;59686;51.716;7.016;2022-09-09T15:09:21;6.65;;;2.63;;
71836;SDS011;59686;51.716;7.016;2022-09-09T15:11:48;6.93;;;2.38;;
71836;SDS011;59686;51.716;7.016;2022-09-09T15:14:13;8.30;;;2.40;;
71836;SDS011;59686;51.716;7.016;2022-09-09T15:16:39;6.20;;;2.53;;
71836;SDS011;59686;51.716;7.016;2022-09-09T15:19:05;5.85;;;2.30;;
71836;SDS011;59686;51.716;7.016;2022-09-09T15:21:32;5.22;;;1.88;;
71836;SDS011;59686;51.716;7.016;2022-09-09T15:24:00;6.38;;;1.70;;
71836;SDS011;59686;51.716;7.016;2022-09-09T15:26:26;3.50;;;1.40;;
71836;SDS011;59686;51.716;7.016;2022-09-09T15:28:52;3.00;;;1.38;;
71836;SDS011;59686;51.716;7.016;2022-09-09T15:31:23;1.92;;;1.10;;
71836;SDS011;59686;51.716;7.016;2022-09-09T15:33:50;2.65;;;1.02;;
71836;SDS011;59686;51.716;7.016;2022-09-09T15:36:21;4.00;;;1.30;;
71836;SDS011;59686;51.716;7.016;2022-09-09T15:38:48;2.75;;;1.17;;
71836;SDS011;59686;51.716;7.016;2022-09-09T15:41:15;3.33;;;1.10;;
71836;SDS011;59686;51.716;7.016;2022-09-09T15:43:45;3.42;;;1.20;;
71836;SDS011;59686;51.716;7.016;2022-09-09T15:49:05;3.22;;;1.05;;
71836;SDS011;59686;51.716;7.016;2022-09-09T15:51:36;4.32;;;1.02;;
71836;SDS011;59686;51.716;7.016;2022-09-09T15:54:03;2.75;;;1.17;;
71836;SDS011;59686;51.716;7.016;2022-09-09T15:56:29;2.10;;;1.00;;
71836;SDS011;59686;51.716;7.016;2022-09-09T15:58:56;1.92;;;1.25;;
71836;SDS011;59686;51.716;7.016;2022-09-09T16:01:22;2.72;;;1.05;;
71836;SDS011;59686;51.716;7.016;2022-09-09T16:03:48;3.42;;;1.25;;
71836;SDS011;59686;51.716;7.016;2022-09-09T16:06:20;2.92;;;1.40;;
71836;SDS011;59686;51.716;7.016;2022-09-09T16:08:48;3.75;;;1.52;;
71836;SDS011;59686;51.716;7.016;2022-09-09T16:11:24;3.47;;;1.30;;
71836;SDS011;59686;51.716;7.016;2022-09-09T16:13:52;2.80;;;1.35;;
71836;SDS011;59686;51.716;7.016;2022-09-09T16:16:20;4.18;;;1.33;;
71836;SDS011;59686;51.716;7.016;2022-09-09T16:18:49;3.50;;;1.52;;
71836;SDS011;59686;51.716;7.016;2022-09-09T16:21:39;2.95;;;1.45;;
71836;SDS011;59686;51.716;7.016;2022-09-09T16:24:07;6.20;;;1.55;;
71836;SDS011;59686;51.716;7.016;2022-09-09T16:26:36;3.00;;;1.55;;
71836;SDS011;59686;51.716;7.016;2022-09-09T16:29:03;3.42;;;1.30;;
71836;SDS011;59686;51.716;7.016;2022-09-09T16:31:48;4.05;;;1.70;;
71836;SDS011;59686;51.716;7.016;2022-09-09T16:34:15;1.95;;;1.30;;
71836;SDS011;59686;51.716;7.016;2022-09-09T16:36:43;2.90;;;1.52;;
71836;SDS011;59686;51.716;7.016;2022-09-09T16:39:10;2.33;;;1.50;;
71836;SDS011;59686;51.716;7.016;2022-09-09T16:41:39;3.85;;;1.63;;
71836;SDS011;59686;51.716;7.016;2022-09-09T16:44:07;2.28;;;1.52;;
71836;SDS011;59686;51.716;7.016;2022-09-09T16:46:34;5.50;;;1.88;;
71836;SDS011;59686;51.716;7.016;2022-09-09T16:49:04;3.28;;;1.67;;
71836;SDS011;59686;51.716;7.016;2022-09-09T16:51:34;2.65;;;1.65;;
71836;SDS011;59686;51.716;7.016;2022-09-09T16:54:03;3.90;;;1.60;;
71836;SDS011;59686;51.716;7.016;2022-09-09T16:56:32;3.17;;;1.73;;
71836;SDS011;59686;51.716;7.016;2022-09-09T16:59:03;3.92;;;1.90;;
71836;SDS011;59686;51.716;7.016;2022-09-09T17:04:21;4.68;;;1.65;;
71836;SDS011;59686;51.716;7.016;2022-09-09T17:06:50;2.78;;;1.30;;
71836;SDS011;59686;51.716;7.016;2022-09-09T17:09:18;3.33;;;1.33;;
71836;SDS011;59686;51.716;7.016;2022-09-09T17:11:45;2.13;;;1.40;;
71836;SDS011;59686;51.716;7.016;2022-09-09T17:14:16;2.15;;;1.35;;
71836;SDS011;59686;51.716;7.016;2022-09-09T17:16:44;2.25;;;1.50;;
71836;SDS011;59686;51.716;7.016;2022-09-09T17:19:10;2.20;;;1.30;;
71836;SDS011;59686;51.716;7.016;2022-09-09T17:21:36;3.28;;;1.40;;
71836;SDS011;59686;51.716;7.016;2022-09-09T17:24:04;3.35;;;1.42;;
71836;SDS011;59686;51.716;7.016;2022-09-09T17:26:30;2.67;;;1.20;;
71836;SDS011;59686;51.716;7.016;2022-09-09T17:28:59;1.77;;;1.40;;
71836;SDS011;59686;51.716;7.016;2022-09-09T17:31:26;1.55;;;1.23;;
71836;SDS011;59686;51.716;7.016;2022-09-09T17:33:52;2.45;;;1.60;;
71836;SDS011;59686;51.716;7.016;2022-09-09T17:36:23;4.32;;;1.60;;
71836;SDS011;59686;51.716;7.016;2022-09-09T17:38:58;2.83;;;1.65;;
71836;SDS011;59686;51.716;7.016;2022-09-09T17:41:35;3.22;;;1.60;;
71836;SDS011;59686;51.716;7.016;2022-09-09T17:44:05;2.95;;;1.33;;
71836;SDS011;59686;51.716;7.016;2022-09-09T17:46:38;3.05;;;1.30;;
71836;SDS011;59686;51.716;7.016;2022-09-09T17:49:07;2.17;;;1.38;;
71836;SDS011;59686;51.716;7.016;2022-09-09T17:51:35;2.05;;;1.20;;
71836;SDS011;59686;51.716;7.016;2022-09-09T17:54:03;1.98;;;1.27;;
71836;SDS011;59686;51.716;7.016;2022-09-09T17:56:32;3.75;;;1.50;;
71836;SDS011;59686;51.716;7.016;2022-09-09T17:59:00;2.63;;;1.27;;